Time;durP1;ratioP1;P1;durP2;ratioP2;P2;SDS_P1;SDS_P2;PMS_P1;PMS_P2;Temp;Humidity;BMP_temperature;BMP_pressure;BME280_temperature;BME280_humidity;BME280_pressure;Samples;Min_cycle;Max_cycle;Signal;HPM_P1;HPM_P2
2022/07/13 00:01:38;;;;;;;1999.90;999.90;;;13.60;98.90;;;;;;5101337;28;20062;-79
2022/07/13 00:04:03;;;;;;;1999.90;999.90;;;13.70;98.20;;;;;;5070908;28;20030;-80
2022/07/13 00:06:29;;;;;;;1999.90;999.90;;;13.60;98.50;;;;;;5064967;28;20046;-79
2022/07/13 00:08:55;;;;;;;1999.90;999.90;;;13.50;99.30;;;;;;5074745;28;20549;-79
2022/07/13 00:11:20;;;;;;;1999.90;999.90;;;13.50;99.90;;;;;;5096937;28;20063;-79
2022/07/13 00:13:46;;;;;;;1999.90;999.90;;;13.40;99.90;;;;;;5074788;28;20122;-79
2022/07/13 00:16:11;;;;;;;1999.90;999.90;;;13.40;99.90;;;;;;5079557;28;20557;-79
2022/07/13 00:18:37;;;;;;;1999.90;999.90;;;13.50;99.90;;;;;;5100283;28;20035;-79
2022/07/13 00:21:03;;;;;;;1999.90;999.90;;;13.50;99.90;;;;;;5081489;28;20032;-79
2022/07/13 00:23:28;;;;;;;1999.90;999.90;;;13.50;99.90;;;;;;5084497;28;20043;-80
2022/07/13 00:25:54;;;;;;;1999.90;999.90;;;13.50;99.80;;;;;;5086139;28;20043;-79
2022/07/13 00:28:19;;;;;;;1999.90;999.90;;;13.50;99.90;;;;;;5090147;28;20070;-78
2022/07/13 00:30:45;;;;;;;1999.90;999.90;;;13.50;99.90;;;;;;5085228;28;20044;-77
2022/07/13 00:33:11;;;;;;;1999.90;999.90;;;13.40;99.50;;;;;;5057403;28;20486;-79
2022/07/13 00:35:36;;;;;;;1999.90;999.90;;;13.40;99.90;;;;;;5074942;28;20024;-88
2022/07/13 00:38:02;;;;;;;1999.90;999.90;;;13.30;99.90;;;;;;5100552;28;20462;-78
2022/07/13 00:40:28;;;;;;;1999.90;999.90;;;13.20;99.90;;;;;;5096721;28;20090;-79
2022/07/13 00:42:54;;;;;;;1999.90;999.90;;;13.00;99.90;;;;;;5064364;28;20442;-79
2022/07/13 00:45:19;;;;;;;1999.90;999.90;;;12.90;99.90;;;;;;5072026;28;20118;-79
2022/07/13 00:47:47;;;;;;;1999.90;999.90;;;13.00;99.90;;;;;;5093563;28;20032;-80
2022/07/13 00:50:13;;;;;;;1999.90;999.90;;;13.00;99.90;;;;;;5092497;28;20021;-79
2022/07/13 00:52:40;;;;;;;1999.90;999.90;;;13.00;99.90;;;;;;5074267;28;20166;-78
2022/07/13 00:55:07;;;;;;;1999.90;999.90;;;13.00;99.90;;;;;;5087226;28;20114;-78
2022/07/13 00:57:37;;;;;;;1999.90;999.90;;;12.90;99.90;;;;;;5104841;28;20076;-83
2022/07/13 01:00:10;;;;;;;1999.90;999.90;;;13.00;99.90;;;;;;5087145;28;20026;-78
2022/07/13 01:02:40;;;;;;;1999.90;999.90;;;12.80;99.90;;;;;;5103441;28;20383;-79
2022/07/13 01:05:06;;;;;;;;;;;12.80;99.90;;;;;;5102008;28;20028;-80
2022/07/13 01:07:32;;;;;;;1999.90;999.90;;;12.80;99.90;;;;;;5090925;28;20322;-79
2022/07/13 01:10:05;;;;;;;1999.90;999.90;;;12.80;99.90;;;;;;5077952;28;20040;-79
2022/07/13 01:12:32;;;;;;;1999.90;999.90;;;12.90;99.90;;;;;;5093147;28;20033;-79
2022/07/13 01:14:58;;;;;;;1999.90;999.90;;;12.90;99.90;;;;;;5100239;28;20376;-79
2022/07/13 01:17:25;;;;;;;1999.90;999.90;;;12.80;99.90;;;;;;5093693;28;20035;-80
2022/07/13 01:19:51;;;;;;;1999.90;999.90;;;12.70;99.90;;;;;;5089626;28;20020;-79
2022/07/13 01:22:20;;;;;;;1999.90;999.90;;;12.70;99.90;;;;;;5069630;28;20123;-79
2022/07/13 01:24:47;;;;;;;1999.90;999.90;;;12.60;99.90;;;;;;5101498;28;20024;-79
2022/07/13 01:27:13;;;;;;;1999.90;999.90;;;12.60;99.90;;;;;;5103277;28;20023;-79
2022/07/13 01:29:39;;;;;;;1999.90;999.90;;;12.60;99.90;;;;;;5085083;28;20043;-80
2022/07/13 01:32:05;;;;;;;1999.90;999.90;;;12.60;99.90;;;;;;5092817;28;20194;-79
2022/07/13 01:34:31;;;;;;;1999.90;999.90;;;12.50;99.90;;;;;;5100149;28;20067;-79
2022/07/13 01:36:57;;;;;;;1999.90;999.90;;;12.50;99.90;;;;;;5082442;28;20106;-79
2022/07/13 01:39:24;;;;;;;1999.90;999.90;;;12.50;99.90;;;;;;5086463;28;20027;-78
2022/07/13 01:41:50;;;;;;;1999.90;999.90;;;12.50;99.90;;;;;;5093756;28;20035;-78
2022/07/13 01:44:16;;;;;;;1999.90;999.90;;;12.40;99.90;;;;;;5093921;28;20100;-78
2022/07/13 01:46:43;;;;;;;1999.90;999.90;;;12.50;99.90;;;;;;5087361;28;20036;-78
2022/07/13 01:49:09;;;;;;;1999.90;999.90;;;12.50;99.90;;;;;;5087396;28;20039;-78
2022/07/13 01:51:34;;;;;;;1999.90;999.90;;;12.50;99.90;;;;;;5090017;28;20423;-78
2022/07/13 01:54:00;;;;;;;1999.90;999.90;;;12.60;99.90;;;;;;5086648;28;20076;-79
2022/07/13 01:56:26;;;;;;;1999.90;999.90;;;12.60;99.90;;;;;;5100972;28;20027;-77
2022/07/13 01:58:52;;;;;;;1999.90;999.90;;;12.50;99.90;;;;;;5100422;28;20032;-78
2022/07/13 02:01:17;;;;;;;1999.90;999.90;;;12.40;99.90;;;;;;5086386;28;20031;-77
2022/07/13 02:03:43;;;;;;;1999.90;999.90;;;12.10;99.90;;;;;;5082335;28;20106;-78
2022/07/13 02:06:09;;;;;;;1999.90;999.90;;;12.00;99.90;;;;;;5099311;28;20020;-78
2022/07/13 02:08:35;;;;;;;1999.90;999.90;;;11.90;99.90;;;;;;5098423;28;20066;-78
2022/07/13 02:11:00;;;;;;;1999.90;999.90;;;12.00;99.90;;;;;;5076583;28;20032;-78
2022/07/13 02:13:26;;;;;;;1999.90;999.90;;;12.00;99.90;;;;;;5079409;28;20056;-78
2022/07/13 02:15:51;;;;;;;1999.90;999.90;;;12.10;99.90;;;;;;5089763;28;20036;-78
2022/07/13 02:18:17;;;;;;;1999.90;999.90;;;12.10;99.90;;;;;;5063491;28;20028;-79
2022/07/13 02:20:43;;;;;;;1999.90;999.90;;;12.10;99.90;;;;;;5070282;28;20031;-79
2022/07/13 02:23:09;;;;;;;1999.90;999.90;;;12.20;99.90;;;;;;5078687;28;20387;-79
2022/07/13 02:25:35;;;;;;;1999.90;999.90;;;12.10;99.90;;;;;;5101003;28;20471;-78
2022/07/13 02:28:00;;;;;;;1999.90;999.90;;;12.10;99.90;;;;;;5101073;28;20058;-80
2022/07/13 02:30:26;;;;;;;1999.90;999.90;;;12.10;99.90;;;;;;5098998;28;20055;-79
2022/07/13 02:32:52;;;;;;;1999.90;999.90;;;12.10;99.90;;;;;;5102520;28;20023;-78
2022/07/13 02:35:18;;;;;;;1999.90;999.90;;;12.10;99.90;;;;;;5078190;28;20683;-79
2022/07/13 02:37:44;;;;;;;1999.90;999.90;;;12.10;99.90;;;;;;5098770;28;20036;-78
2022/07/13 02:40:12;;;;;;;1999.90;999.90;;;12.10;99.90;;;;;;5094854;28;20035;-78
2022/07/13 02:42:37;;;;;;;1999.90;999.90;;;12.10;99.90;;;;;;5091052;28;20029;-79
2022/07/13 02:45:05;;;;;;;1999.90;999.90;;;12.10;99.90;;;;;;5094497;28;20020;-79
2022/07/13 02:47:31;;;;;;;1999.90;999.90;;;12.10;99.90;;;;;;5069736;28;20039;-79
2022/07/13 02:49:56;;;;;;;1999.90;999.90;;;12.00;99.90;;;;;;5089157;28;20518;-78
2022/07/13 02:52:22;;;;;;;1999.90;999.90;;;12.10;99.90;;;;;;5044563;28;20406;-80
2022/07/13 02:54:47;;;;;;;1999.90;999.90;;;12.10;99.90;;;;;;5102387;28;20843;-79
2022/07/13 02:57:13;;;;;;;1999.90;999.90;;;11.90;99.90;;;;;;5080932;28;20751;-78
2022/07/13 02:59:39;;;;;;;1999.90;999.90;;;11.90;99.90;;;;;;5096862;28;20518;-79
2022/07/13 03:02:06;;;;;;;1999.90;999.90;;;11.80;99.90;;;;;;5100976;28;20149;-78
2022/07/13 03:04:32;;;;;;;1999.90;999.90;;;11.70;99.90;;;;;;5095239;28;20492;-82
2022/07/13 03:06:58;;;;;;;1999.90;999.90;;;11.70;99.90;;;;;;5097633;28;20032;-78
2022/07/13 03:09:24;;;;;;;1999.90;999.90;;;11.70;99.90;;;;;;5074987;28;20215;-78
2022/07/13 03:11:50;;;;;;;1999.90;999.90;;;11.60;99.90;;;;;;5095372;28;20031;-79
2022/07/13 03:14:16;;;;;;;1999.90;999.90;;;11.60;99.90;;;;;;5094824;28;20048;-78
2022/07/13 03:16:42;;;;;;;1999.90;999.90;;;11.60;99.90;;;;;;5076629;28;20098;-86
2022/07/13 03:19:08;;;;;;;1999.90;999.90;;;11.60;99.90;;;;;;5094324;28;20024;-78
2022/07/13 03:21:34;;;;;;;1999.90;999.90;;;11.50;99.90;;;;;;5073725;28;20103;-78
2022/07/13 03:24:00;;;;;;;1999.90;999.90;;;11.50;99.90;;;;;;5085160;28;20497;-79
2022/07/13 03:26:25;;;;;;;1999.90;999.90;;;11.60;99.90;;;;;;5102678;28;20039;-78
2022/07/13 03:28:51;;;;;;;1999.90;999.90;;;11.50;99.90;;;;;;5096284;28;20035;-80
2022/07/13 03:31:20;;;;;;;1999.90;999.90;;;11.50;99.90;;;;;;5066087;28;20036;-78
2022/07/13 03:33:46;;;;;;;1999.90;999.90;;;11.60;99.90;;;;;;5105055;28;20559;-78
2022/07/13 03:36:12;;;;;;;1999.90;999.90;;;11.60;99.90;;;;;;5082720;28;20043;-78
2022/07/13 03:38:38;;;;;;;1999.90;999.90;;;11.60;99.90;;;;;;5097989;28;20032;-78
2022/07/13 03:41:04;;;;;;;1999.90;999.90;;;11.50;99.90;;;;;;5075832;28;20028;-79
2022/07/13 03:43:30;;;;;;;1999.90;999.90;;;11.50;99.90;;;;;;5099572;28;20044;-78
2022/07/13 03:45:57;;;;;;;1999.90;999.90;;;11.40;99.90;;;;;;5096211;28;20119;-78
2022/07/13 03:48:22;;;;;;;1999.90;999.90;;;11.30;99.90;;;;;;5089874;28;20023;-79
2022/07/13 03:50:49;;;;;;;1999.90;999.90;;;11.40;99.90;;;;;;5093165;28;20085;-78
2022/07/13 03:53:15;;;;;;;1999.90;999.90;;;11.50;99.90;;;;;;5091325;28;20042;-78
2022/07/13 03:55:42;;;;;;;1999.90;999.90;;;11.50;99.90;;;;;;5091017;28;20031;-78
2022/07/13 03:58:08;;;;;;;1999.90;999.90;;;11.60;99.90;;;;;;5103706;28;20038;-79
2022/07/13 04:00:34;;;;;;;1999.90;999.90;;;11.50;99.90;;;;;;5099902;28;20040;-79
2022/07/13 04:03:00;;;;;;;1999.90;999.90;;;11.50;99.90;;;;;;5078920;28;20035;-79
2022/07/13 04:05:25;;;;;;;1999.90;999.90;;;11.70;99.90;;;;;;5098916;28;20035;-79
2022/07/13 04:07:51;;;;;;;1999.90;999.90;;;11.80;99.90;;;;;;5082591;28;20081;-78
2022/07/13 04:10:18;;;;;;;1999.90;999.90;;;11.90;99.90;;;;;;5057495;28;20532;-77
2022/07/13 04:12:45;;;;;;;1999.90;999.90;;;12.10;99.90;;;;;;5087899;28;20043;-78
2022/07/13 04:15:12;;;;;;;1999.90;999.90;;;12.00;99.90;;;;;;5095261;28;20039;-79
2022/07/13 04:17:41;;;;;;;1999.90;999.90;;;12.20;99.90;;;;;;5093109;28;20103;-78
2022/07/13 04:20:07;;;;;;;1999.90;999.90;;;12.30;99.90;;;;;;5065222;28;20047;-79
2022/07/13 04:22:33;;;;;;;1999.90;999.90;;;12.40;99.90;;;;;;5102856;28;20076;-78
2022/07/13 04:25:00;;;;;;;1999.90;999.90;;;12.50;99.90;;;;;;5104812;28;20094;-80
2022/07/13 04:27:25;;;;;;;1999.90;999.90;;;12.60;99.90;;;;;;5101322;28;20028;-78
2022/07/13 04:29:51;;;;;;;1999.90;999.90;;;12.60;99.90;;;;;;5096413;28;20027;-79
2022/07/13 04:32:17;;;;;;;1999.90;999.90;;;12.70;99.90;;;;;;5079494;28;20032;-80
2022/07/13 04:34:42;;;;;;;1999.90;999.90;;;12.70;99.90;;;;;;5087962;28;20039;-78
2022/07/13 04:37:08;;;;;;;1999.90;999.90;;;12.70;99.90;;;;;;5065862;28;20044;-79
2022/07/13 04:39:33;;;;;;;1999.90;999.90;;;12.80;99.90;;;;;;5077790;28;20028;-78
2022/07/13 04:41:59;;;;;;;1999.90;999.90;;;12.90;99.90;;;;;;5089550;28;20060;-79
2022/07/13 04:44:27;;;;;;;1999.90;999.90;;;13.10;99.90;;;;;;5090646;28;20099;-79
2022/07/13 04:46:55;;;;;;;1999.90;999.90;;;13.10;99.90;;;;;;5080411;28;20546;-79
2022/07/13 04:49:22;;;;;;;1999.90;999.90;;;13.30;99.90;;;;;;5083992;28;20086;-80
2022/07/13 04:51:48;;;;;;;1999.90;999.90;;;13.50;99.90;;;;;;5092067;28;20027;-78
2022/07/13 04:54:18;;;;;;;1999.90;999.90;;;13.60;99.90;;;;;;5101234;28;20028;-79
2022/07/13 04:56:44;;;;;;;1999.90;999.90;;;13.70;99.90;;;;;;5096408;28;20024;-79
2022/07/13 04:59:11;;;;;;;1999.90;999.90;;;13.90;99.90;;;;;;5075215;28;20541;-80
2022/07/13 05:01:36;;;;;;;1999.90;999.90;;;14.00;99.90;;;;;;5093046;28;20032;-79
2022/07/13 05:04:03;;;;;;;1999.90;999.90;;;14.10;99.90;;;;;;5096116;28;20099;-79
2022/07/13 05:06:28;;;;;;;1999.90;999.90;;;14.30;99.90;;;;;;5074928;28;20059;-78
2022/07/13 05:08:54;;;;;;;1999.90;999.90;;;14.50;99.90;;;;;;5072551;28;20055;-79
2022/07/13 05:11:20;;;;;;;1999.90;999.90;;;14.60;99.90;;;;;;5075588;28;20032;-80
2022/07/13 05:13:46;;;;;;;1999.90;999.90;;;14.70;99.90;;;;;;5093274;28;20110;-79
2022/07/13 05:16:12;;;;;;;1999.90;999.90;;;14.90;99.00;;;;;;5089914;28;20032;-79
2022/07/13 05:18:37;;;;;;;1999.90;999.90;;;15.00;97.70;;;;;;5068648;28;20054;-79
2022/07/13 05:21:03;;;;;;;1999.90;999.90;;;15.20;98.10;;;;;;5075893;28;20087;-79
2022/07/13 05:23:29;;;;;;;1999.90;999.90;;;15.20;98.40;;;;;;5084919;28;20066;-79
2022/07/13 05:25:54;;;;;;;1999.90;999.90;;;15.30;96.90;;;;;;5099312;28;20043;-81
2022/07/13 05:28:20;;;;;;;1999.90;999.90;;;15.40;97.40;;;;;;5050757;28;20028;-79
2022/07/13 05:30:46;;;;;;;1999.90;999.90;;;15.50;98.50;;;;;;5072195;28;20107;-81
2022/07/13 05:33:14;;;;;;;1999.90;999.90;;;15.70;98.80;;;;;;5063755;28;20051;-80
2022/07/13 05:35:40;;;;;;;1999.90;999.90;;;15.70;97.90;;;;;;5079341;28;20506;-79
2022/07/13 05:38:06;;;;;;;1999.90;999.90;;;15.80;98.40;;;;;;5077225;28;20040;-81
2022/07/13 05:40:32;;;;;;;1999.90;999.90;;;15.80;99.80;;;;;;5072767;28;20410;-80
2022/07/13 05:42:57;;;;;;;1999.90;999.90;;;15.80;99.90;;;;;;5098160;28;20046;-80
2022/07/13 05:45:24;;;;;;;1999.90;999.90;;;15.80;99.80;;;;;;5091924;28;20027;-81
2022/07/13 05:47:50;;;;;;;1999.90;999.90;;;15.80;98.90;;;;;;5091745;28;20040;-82
2022/07/13 05:50:15;;;;;;;1999.90;999.90;;;15.90;99.10;;;;;;5038458;28;20525;-80
2022/07/13 05:52:42;;;;;;;1999.90;999.90;;;16.00;98.10;;;;;;5099719;28;20035;-79
2022/07/13 05:55:09;;;;;;;1999.90;999.90;;;16.10;97.90;;;;;;5103042;28;20027;-81
2022/07/13 05:57:35;;;;;;;1999.90;999.90;;;16.20;99.10;;;;;;5102604;28;20106;-79
2022/07/13 06:00:01;;;;;;;1999.90;999.90;;;16.30;98.50;;;;;;5082811;28;20499;-80
2022/07/13 06:02:27;;;;;;;1999.90;999.90;;;16.30;98.80;;;;;;5077589;28;20160;-80
2022/07/13 06:04:53;;;;;;;1999.90;999.90;;;16.40;96.50;;;;;;5063563;28;20110;-80
2022/07/13 06:07:18;;;;;;;1999.90;999.90;;;16.50;95.70;;;;;;5096337;28;20112;-79
2022/07/13 06:09:44;;;;;;;1999.90;999.90;;;16.40;98.40;;;;;;5094567;28;20487;-80
2022/07/13 06:12:09;;;;;;;1999.90;999.90;;;16.50;96.00;;;;;;5068912;28;20028;-80
2022/07/13 06:14:35;;;;;;;1999.90;999.90;;;16.60;97.70;;;;;;5053482;28;20055;-80
2022/07/13 06:17:01;;;;;;;1999.90;999.90;;;16.80;93.50;;;;;;5081454;28;20054;-80
2022/07/13 06:19:28;;;;;;;1999.90;999.90;;;17.10;95.40;;;;;;5088797;28;20074;-80
2022/07/13 06:21:54;;;;;;;1999.90;999.90;;;17.00;94.40;;;;;;5057223;28;20104;-80
2022/07/13 06:24:19;;;;;;;1999.90;999.90;;;17.20;94.90;;;;;;5081453;28;20790;-80
2022/07/13 06:26:45;;;;;;;1999.90;999.90;;;17.30;93.50;;;;;;5063877;28;20043;-80
2022/07/13 06:29:11;;;;;;;1999.90;999.90;;;17.30;93.60;;;;;;5079360;28;20367;-80
2022/07/13 06:31:36;;;;;;;1999.90;999.90;;;17.40;91.30;;;;;;5079860;28;20027;-80
2022/07/13 06:34:02;;;;;;;1999.90;999.90;;;17.50;90.80;;;;;;5056453;28;20032;-80
2022/07/13 06:36:27;;;;;;;1999.90;999.90;;;17.60;92.40;;;;;;5088467;28;20381;-80
2022/07/13 06:38:53;;;;;;;1999.90;999.90;;;17.70;93.80;;;;;;5076398;28;20100;-80
2022/07/13 06:41:19;;;;;;;1999.90;999.90;;;17.80;92.00;;;;;;5059562;28;20529;-80
2022/07/13 06:43:45;;;;;;;1999.90;999.90;;;17.90;89.90;;;;;;5095657;28;20031;-83
2022/07/13 06:46:10;;;;;;;1999.90;999.90;;;18.00;86.50;;;;;;5071242;28;20055;-80
2022/07/13 06:48:36;;;;;;;1999.90;999.90;;;18.00;89.50;;;;;;5086760;28;20664;-80
2022/07/13 06:51:03;;;;;;;1999.90;999.90;;;18.20;89.20;;;;;;5076972;28;20019;-80
2022/07/13 06:53:29;;;;;;;1999.90;999.90;;;18.30;88.30;;;;;;5063114;28;20038;-80
2022/07/13 06:55:55;;;;;;;1999.90;999.90;;;18.50;86.20;;;;;;5096041;28;20031;-81
2022/07/13 06:58:21;;;;;;;1999.90;999.90;;;18.60;84.90;;;;;;5083820;28;20024;-80
2022/07/13 07:00:47;;;;;;;1999.90;999.90;;;18.80;87.60;;;;;;5096255;28;20043;-80
2022/07/13 07:03:13;;;;;;;1999.90;999.90;;;18.80;84.70;;;;;;5076145;28;20043;-80
2022/07/13 07:05:39;;;;;;;1999.90;999.90;;;19.10;82.90;;;;;;5077756;28;20032;-80
2022/07/13 07:08:05;;;;;;;1999.90;999.90;;;19.20;84.50;;;;;;5093176;28;20436;-81
2022/07/13 07:10:30;;;;;;;1999.90;999.90;;;19.30;81.10;;;;;;5066956;28;20670;-79
2022/07/13 07:12:56;;;;;;;1999.90;999.90;;;19.40;83.00;;;;;;5087238;28;20035;-80
2022/07/13 07:15:23;;;;;;;1999.90;999.90;;;19.40;82.60;;;;;;5071220;28;20053;-80
2022/07/13 07:17:49;;;;;;;1999.90;999.90;;;19.70;82.30;;;;;;5089019;28;20085;-81
2022/07/13 07:20:15;;;;;;;1999.90;999.90;;;19.80;79.60;;;;;;5094931;28;20090;-80
2022/07/13 07:22:41;;;;;;;1999.90;999.90;;;20.00;79.10;;;;;;5104862;28;20036;-80
2022/07/13 07:25:08;;;;;;;1999.90;999.90;;;20.10;83.00;;;;;;5082431;28;20599;-79
2022/07/13 07:27:34;;;;;;;1999.90;999.90;;;20.40;80.40;;;;;;5097831;28;20032;-80
2022/07/13 07:29:59;;;;;;;1999.90;999.90;;;20.50;80.90;;;;;;5096759;28;20552;-79
2022/07/13 07:32:25;;;;;;;1999.90;999.90;;;20.50;78.00;;;;;;5079136;28;20031;-80
2022/07/13 07:34:51;;;;;;;1999.90;999.90;;;20.60;76.60;;;;;;5060676;28;20486;-80
2022/07/13 07:37:20;;;;;;;1999.90;999.90;;;20.70;75.60;;;;;;5060532;28;20038;-79
2022/07/13 07:39:46;;;;;;;1999.90;999.90;;;20.80;76.50;;;;;;5089671;28;20109;-79
2022/07/13 07:42:12;;;;;;;1999.90;999.90;;;20.90;79.40;;;;;;5069230;28;20028;-79
2022/07/13 07:44:37;;;;;;;1999.90;999.90;;;21.10;73.40;;;;;;5068025;28;20399;-80
2022/07/13 07:47:03;;;;;;;1999.90;999.90;;;21.30;74.10;;;;;;5070758;28;20040;-79
2022/07/13 07:49:29;;;;;;;1999.90;999.90;;;21.40;72.10;;;;;;5093993;28;20039;-79
2022/07/13 07:51:55;;;;;;;1999.90;999.90;;;21.40;71.00;;;;;;5101738;28;20035;-79
2022/07/13 07:54:20;;;;;;;1999.90;999.90;;;21.50;74.60;;;;;;5103392;28;20073;-81
2022/07/13 07:56:46;;;;;;;1999.90;999.90;;;21.60;72.20;;;;;;5080816;28;20502;-81
2022/07/13 07:59:12;;;;;;;1999.90;999.90;;;21.60;71.30;;;;;;5048533;28;20298;-80
2022/07/13 08:01:38;;;;;;;1999.90;999.90;;;21.80;76.10;;;;;;5093694;28;20039;-80
2022/07/13 08:04:04;;;;;;;1999.90;999.90;;;21.80;70.80;;;;;;5078602;28;20028;-80
2022/07/13 08:06:29;;;;;;;1999.90;999.90;;;22.00;70.80;;;;;;5071962;28;20035;-79
2022/07/13 08:08:55;;;;;;;1999.90;999.90;;;22.30;65.10;;;;;;5058154;28;20040;-80
2022/07/13 08:11:21;;;;;;;1999.90;999.90;;;22.50;65.80;;;;;;5074142;28;20123;-81
2022/07/13 08:13:47;;;;;;;1999.90;999.90;;;22.60;60.30;;;;;;5059071;28;20061;-80
2022/07/13 08:16:14;;;;;;;1999.90;999.90;;;22.50;61.20;;;;;;5069644;28;20055;-81
2022/07/13 08:18:40;;;;;;;1999.90;999.90;;;22.40;61.20;;;;;;5083189;28;20070;-80
2022/07/13 08:21:06;;;;;;;1999.90;999.90;;;22.20;65.30;;;;;;5081182;28;20486;-81
2022/07/13 08:26:17;;;;;;;1999.90;999.90;;;22.80;65.70;;;;;;5089184;28;20037;-81
2022/07/13 08:28:43;;;;;;;1999.90;999.90;;;23.20;62.40;;;;;;5080941;28;20046;-81
2022/07/13 08:31:08;;;;;;;1999.90;999.90;;;23.60;61.20;;;;;;5083326;28;20030;-81
2022/07/13 08:39:02;;;;;;;1999.90;999.90;;;24.10;55.20;;;;;;5090504;28;20042;-81
2022/07/13 08:41:29;;;;;;;1999.90;999.90;;;24.30;56.00;;;;;;5094610;28;20028;-81
2022/07/13 08:43:54;;;;;;;1999.90;999.90;;;24.60;54.00;;;;;;5092547;28;20047;-81
2022/07/13 08:46:21;;;;;;;1999.90;999.90;;;24.70;50.20;;;;;;5093770;28;20028;-81
2022/07/13 08:48:50;;;;;;;1999.90;999.90;;;24.40;49.60;;;;;;5072973;28;20143;-80
2022/07/13 08:51:20;;;;;;;1999.90;999.90;;;24.60;46.80;;;;;;5104143;28;20055;-80
2022/07/13 08:53:45;;;;;;;1999.90;999.90;;;25.00;47.20;;;;;;5107351;28;20044;-80
2022/07/13 08:56:11;;;;;;;1999.90;999.90;;;24.80;40.80;;;;;;5102824;28;20028;-80
2022/07/13 08:58:37;;;;;;;1999.90;999.90;;;24.90;36.30;;;;;;5097747;28;20035;-81
2022/07/13 09:01:05;;;;;;;1999.90;999.90;;;25.20;38.20;;;;;;5101493;28;20467;-80
2022/07/13 09:07:39;;;;;;;1999.90;999.90;;;25.60;33.50;;;;;;5092975;28;20505;-80
2022/07/13 09:10:05;;;;;;;1999.90;999.90;;;25.60;36.70;;;;;;5091475;28;20032;-80
2022/07/13 09:12:32;;;;;;;1999.90;999.90;;;25.80;32.10;;;;;;5091069;28;20118;-80
2022/07/13 09:15:06;;;;;;;1999.90;999.90;;;26.10;30.20;;;;;;5091184;28;20486;-81
2022/07/13 09:17:36;;;;;;;1999.90;999.90;;;26.20;30.00;;;;;;5084086;28;20043;-80
2022/07/13 09:20:17;;;;;;;1999.90;999.90;;;26.10;31.50;;;;;;5096383;28;20031;-80
2022/07/13 09:22:52;;;;;;;1999.90;999.90;;;26.30;32.80;;;;;;5096259;28;20030;-80
2022/07/13 09:25:32;;;;;;;1999.90;999.90;;;26.60;31.40;;;;;;5101508;28;20024;-80
2022/07/13 09:28:04;;;;;;;1999.90;999.90;;;26.70;27.20;;;;;;5102590;28;20028;-80
2022/07/13 09:30:31;;;;;;;1999.90;999.90;;;26.70;31.20;;;;;;5095198;28;20058;-81
2022/07/13 09:32:58;;;;;;;1999.90;999.90;;;27.00;28.30;;;;;;5083109;28;20073;-81
2022/07/13 09:35:48;;;;;;;1999.90;999.90;;;26.80;27.70;;;;;;5098667;28;20025;-81
2022/07/13 09:38:29;;;;;;;1999.90;999.90;;;27.00;26.50;;;;;;5074703;28;20024;-80
2022/07/13 09:40:56;;;;;;;1999.90;999.90;;;27.20;26.60;;;;;;5075600;28;20040;-79
2022/07/13 09:46:09;;;;;;;1999.90;999.90;;;27.00;31.40;;;;;;5086312;28;20096;-80
2022/07/13 09:48:38;;;;;;;1999.90;999.90;;;27.70;26.60;;;;;;5088950;28;20046;-81
2022/07/13 09:51:05;;;;;;;1999.90;999.90;;;27.60;26.00;;;;;;5099962;28;20268;-81
2022/07/13 09:53:34;;;;;;;1999.90;999.90;;;27.90;29.70;;;;;;5086733;28;20080;-78
2022/07/13 09:56:01;;;;;;;1999.90;999.90;;;27.70;30.00;;;;;;5097506;28;20019;-76
2022/07/13 09:58:33;;;;;;;1999.90;999.90;;;28.20;26.30;;;;;;5100130;28;20036;-75
2022/07/13 10:01:01;;;;;;;1999.90;999.90;;;28.10;26.60;;;;;;5099107;28;20054;-76
2022/07/13 10:03:29;;;;;;;1999.90;999.90;;;28.30;27.90;;;;;;5089030;28;20711;-75
2022/07/13 10:05:57;;;;;;;1999.90;999.90;;;28.40;24.70;;;;;;5097216;28;20032;-77
2022/07/13 10:08:23;;;;;;;1999.90;999.90;;;28.40;24.50;;;;;;5092535;28;20036;-76
2022/07/13 10:10:49;;;;;;;1999.90;999.90;;;28.10;22.50;;;;;;5094751;28;20078;-76
2022/07/13 10:13:17;;;;;;;1999.90;999.90;;;28.20;23.10;;;;;;5075178;28;20125;-76
2022/07/13 10:15:46;;;;;;;1999.90;999.90;;;28.20;26.60;;;;;;5087054;28;20024;-76
2022/07/13 10:18:21;;;;;;;1999.90;999.90;;;28.40;22.00;;;;;;5069859;28;20102;-76
2022/07/13 10:21:06;;;;;;;1999.90;999.90;;;28.50;21.20;;;;;;5088028;28;20050;-76
2022/07/13 10:23:37;;;;;;;1999.90;999.90;;;28.30;21.20;;;;;;5081955;28;20035;-76
2022/07/13 10:26:17;;;;;;;1999.90;999.90;;;29.10;20.60;;;;;;5104841;28;20074;-76
2022/07/13 10:28:59;;;;;;;1999.90;999.90;;;29.20;24.10;;;;;;5091369;28;20502;-77
2022/07/13 10:31:29;;;;;;;1999.90;999.90;;;28.90;22.00;;;;;;5079042;28;20028;-76
2022/07/13 10:33:55;;;;;;;1999.90;999.90;;;29.20;20.60;;;;;;5099019;28;20032;-76
2022/07/13 10:36:52;;;;;;;1999.90;999.90;;;29.60;22.20;;;;;;5079704;28;20027;-75
2022/07/13 10:39:19;;;;;;;1999.90;999.90;;;29.60;21.50;;;;;;5074800;28;20021;-76
2022/07/13 10:41:56;;;;;;;1999.90;999.90;;;29.20;26.30;;;;;;5092637;28;20032;-86
2022/07/13 10:44:38;;;;;;;1999.90;999.90;;;29.80;22.80;;;;;;5076611;28;20024;-81
2022/07/13 10:47:06;;;;;;;1999.90;999.90;;;29.40;23.70;;;;;;5091395;28;20039;-80
2022/07/13 10:49:51;;;;;;;1999.90;999.90;;;29.90;23.10;;;;;;5061077;28;20028;-80
2022/07/13 10:52:26;;;;;;;1999.90;999.90;;;30.40;24.50;;;;;;5098997;28;20022;-81
2022/07/13 10:55:09;;;;;;;1999.90;999.90;;;30.00;24.30;;;;;;5084616;28;20116;-81
2022/07/13 10:57:39;;;;;;;1999.90;999.90;;;30.40;23.00;;;;;;5101431;28;20031;-82
2022/07/13 11:00:19;;;;;;;1999.90;999.90;;;31.30;23.20;;;;;;5095951;28;20024;-81
2022/07/13 11:02:50;;;;;;;1999.90;999.90;;;32.60;24.80;;;;;;5097298;28;20048;-83
2022/07/13 11:05:18;;;;;;;1999.90;999.90;;;31.60;19.60;;;;;;5078932;28;20036;-82
2022/07/13 11:07:47;;;;;;;1999.90;999.90;;;31.40;20.10;;;;;;5075092;28;20356;-82
2022/07/13 11:10:30;;;;;;;1999.90;999.90;;;32.20;21.10;;;;;;5093466;28;20020;-83
2022/07/13 11:13:09;;;;;;;1999.90;999.90;;;31.10;21.40;;;;;;5065730;28;20051;-82
2022/07/13 11:15:54;;;;;;;1999.90;999.90;;;30.30;23.90;;;;;;5065018;28;20036;-83
2022/07/13 11:18:22;;;;;;;1999.90;999.90;;;30.50;23.60;;;;;;5083945;28;20036;-83
2022/07/13 11:21:18;;;;;;;1999.90;999.90;;;31.70;20.40;;;;;;5103701;28;20161;-83
2022/07/13 11:26:46;;;;;;;1999.90;999.90;;;31.80;20.00;;;;;;5094982;28;20521;-83
2022/07/13 11:29:21;;;;;;;1999.90;999.90;;;32.50;18.80;;;;;;5088789;28;20102;-86
2022/07/13 11:31:54;;;;;;;1999.90;999.90;;;32.60;20.90;;;;;;5097994;28;20052;-84
2022/07/13 11:34:21;;;;;;;1999.90;999.90;;;33.30;18.90;;;;;;5087907;28;20051;-87
2022/07/13 11:36:46;;;;;;;1999.90;999.90;;;33.50;19.20;;;;;;5065855;28;20056;-86
2022/07/13 11:39:26;;;;;;;1999.90;999.90;;;33.20;23.90;;;;;;5064925;28;20052;-86
2022/07/13 11:41:53;;;;;;;1999.90;999.90;;;33.80;19.00;;;;;;5087629;28;20035;-86
2022/07/13 11:44:25;;;;;;;1999.90;999.90;;;33.50;19.10;;;;;;5060999;28;20106;-86
2022/07/13 11:46:52;;;;;;;1999.90;999.90;;;33.70;19.40;;;;;;5068476;28;20097;-88
2022/07/13 11:49:17;;;;;;;1999.90;999.90;;;33.60;23.90;;;;;;5076639;28;20264;-87
2022/07/13 11:51:44;;;;;;;1999.90;999.90;;;34.40;17.20;;;;;;5074715;28;20059;-87
2022/07/13 11:54:15;;;;;;;1999.90;999.90;;;34.40;19.90;;;;;;5057419;28;20028;-87
2022/07/13 11:56:49;;;;;;;1999.90;999.90;;;34.10;19.50;;;;;;5084690;28;20028;-88
2022/07/13 11:59:33;;;;;;;1999.90;999.90;;;34.30;21.00;;;;;;5079354;28;20058;-86
2022/07/13 12:01:59;;;;;;;1999.90;999.90;;;33.80;17.40;;;;;;5090167;28;20072;-86
2022/07/13 12:04:26;;;;;;;1999.90;999.90;;;34.60;17.40;;;;;;5073403;28;20586;-90
2022/07/13 12:07:31;;;;;;;1999.90;999.90;;;35.30;15.40;;;;;;5062458;28;20038;-87
2022/07/13 12:10:05;;;;;;;1999.90;999.90;;;35.20;18.40;;;;;;5077761;28;20032;-87
2022/07/13 12:12:36;;;;;;;1999.90;999.90;;;35.40;15.40;;;;;;5077821;28;20182;-86
2022/07/13 12:15:04;;;;;;;1999.90;999.90;;;35.80;15.90;;;;;;5093322;28;20656;-86
2022/07/13 12:17:41;;;;;;;1999.90;999.90;;;35.90;14.90;;;;;;5091379;28;20024;-94
2022/07/13 12:20:25;;;;;;;1999.90;999.90;;;36.30;14.70;;;;;;5084942;28;20024;-86